Time;durP1;ratioP1;P1;durP2;ratioP2;P2;SDS_P1;SDS_P2;PMS_P1;PMS_P2;Temp;Humidity;BMP_temperature;BMP_pressure;BME280_temperature;BME280_humidity;BME280_pressure;Samples;Min_cycle;Max_cycle;Signal;HPM_P1;HPM_P2
2023/08/13 00:01:45;;;;;;;1.38;0.90;;;;;;;22.67;100.00;100524.25;5053870;28;20203;-70
2023/08/13 00:04:13;;;;;;;1.85;0.88;;;;;;;22.70;100.00;100526.81;5054067;28;20666;-70
2023/08/13 00:06:39;;;;;;;2.13;1.02;;;;;;;22.47;100.00;100508.06;5053998;28;20203;-70
2023/08/13 00:09:06;;;;;;;0.80;0.80;;;;;;;22.44;100.00;100518.72;5054066;28;20203;-70
2023/08/13 00:11:33;;;;;;;0.70;0.70;;;;;;;22.44;100.00;100518.72;5053952;28;20231;-70
2023/08/13 00:14:00;;;;;;;0.80;0.80;;;;;;;22.46;100.00;100511.59;5053868;28;20200;-71
2023/08/13 00:16:27;;;;;;;2.55;1.02;;;;;;;22.31;100.00;100486.44;5053818;28;20203;-71
2023/08/13 00:18:53;;;;;;;0.70;0.70;;;;;;;22.51;100.00;100512.34;5053239;28;20199;-71
2023/08/13 00:21:21;;;;;;;1.00;0.90;;;;;;;22.52;100.00;100509.66;5035305;28;20574;-70
2023/08/13 00:23:50;;;;;;;0.82;0.82;;;;;;;22.48;100.00;100518.56;5053278;28;20195;-70
2023/08/13 00:26:17;;;;;;;0.80;0.80;;;;;;;22.26;100.00;100517.38;5053597;28;20211;-70
2023/08/13 00:28:43;;;;;;;0.82;0.77;;;;;;;22.23;100.00;100518.34;5053506;28;20283;-71
2023/08/13 00:31:10;;;;;;;1.02;0.80;;;;;;;22.15;100.00;100525.59;5053628;28;20245;-71
2023/08/13 00:33:37;;;;;;;1.30;0.90;;;;;;;22.14;100.00;100521.22;5053251;28;20195;-71
2023/08/13 00:36:04;;;;;;;0.75;0.75;;;;;;;22.17;100.00;100517.63;5053207;28;20230;-70
2023/08/13 00:38:32;;;;;;;0.77;0.70;;;;;;;22.21;100.00;100524.59;5053765;28;20206;-70
2023/08/13 00:40:59;;;;;;;0.68;0.68;;;;;;;22.05;100.00;100529.38;5053093;28;20211;-71
2023/08/13 00:43:26;;;;;;;2.60;1.02;;;;;;;21.98;100.00;100532.19;5052908;28;20666;-71
2023/08/13 00:45:52;;;;;;;1.30;1.20;;;;;;;21.96;100.00;100529.59;5052272;28;20673;-71
2023/08/13 00:48:20;;;;;;;0.65;0.65;;;;;;;21.88;100.00;100531.53;5052574;28;20214;-70
2023/08/13 00:50:47;;;;;;;2.60;1.33;;;;;;;21.66;100.00;100533.78;5052214;28;20235;-70
2023/08/13 00:53:14;;;;;;;0.90;0.90;;;;;;;21.64;100.00;100513.63;5052638;28;20210;-71
2023/08/13 00:55:43;;;;;;;1.45;0.80;;;;;;;21.68;100.00;100518.81;5052701;28;20202;-70
2023/08/13 00:58:10;;;;;;;0.70;0.70;;;;;;;21.62;100.00;100533.91;5053157;28;20204;-70
2023/08/13 01:00:38;;;;;;;2.45;2.03;;;;;;;21.45;100.00;100520.22;5057635;28;20210;-70
2023/08/13 01:03:07;;;;;;;0.70;0.70;;;;;;;21.56;100.00;100534.03;5059261;28;20203;-70
2023/08/13 01:05:42;;;;;;;0.77;0.77;;;;;;;21.57;100.00;100531.38;5058280;28;20196;-70
2023/08/13 01:08:15;;;;;;;0.70;0.70;;;;;;;21.57;100.00;100527.88;5061977;28;20195;-70
2023/08/13 01:10:47;;;;;;;1.65;0.93;;;;;;;21.56;100.00;100531.41;5059773;28;20305;-70
2023/08/13 01:13:21;;;;;;;0.80;0.80;;;;;;;21.55;100.00;100532.28;5053403;28;20196;-71
2023/08/13 01:15:49;;;;;;;0.80;0.80;;;;;;;21.54;100.00;100528.81;5056008;28;20227;-70
2023/08/13 01:18:17;;;;;;;0.60;0.60;;;;;;;21.58;100.00;100532.25;5058136;28;20709;-70
2023/08/13 01:20:44;;;;;;;2.75;1.17;;;;;;;21.53;100.00;100542.03;5056227;28;20207;-70
2023/08/13 01:23:13;;;;;;;0.90;0.90;;;;;;;21.47;100.00;100532.50;5054984;28;20203;-71
2023/08/13 01:25:44;;;;;;;0.85;0.80;;;;;;;21.42;100.00;100530.84;5053591;28;20203;-70
2023/08/13 01:28:18;;;;;;;1.17;0.82;;;;;;;21.45;100.00;100536.06;5053501;28;20274;-71
2023/08/13 01:30:47;;;;;;;1.95;0.98;;;;;;;21.19;100.00;100504.94;5052436;28;20199;-71
2023/08/13 01:33:18;;;;;;;0.80;0.80;;;;;;;21.31;100.00;100530.22;5052129;28;20192;-71
2023/08/13 01:35:46;;;;;;;1.85;0.95;;;;;;;21.17;100.00;100518.19;5051824;28;20227;-71
2023/08/13 01:38:14;;;;;;;0.70;0.70;;;;;;;21.30;100.00;100531.13;5051792;28;20204;-71
2023/08/13 01:40:42;;;;;;;1.42;0.90;;;;;;;21.17;100.00;100541.06;5016504;28;20191;-71
2023/08/13 01:43:08;;;;;;;0.63;0.63;;;;;;;21.18;100.00;100530.50;5051293;28;20207;-71
2023/08/13 01:45:35;;;;;;;1.27;0.90;;;;;;;21.11;100.00;100542.06;5052053;28;20211;-71
2023/08/13 01:48:02;;;;;;;0.70;0.70;;;;;;;21.01;100.00;100537.81;5051695;28;20210;-71
2023/08/13 01:50:29;;;;;;;0.85;0.85;;;;;;;21.08;100.00;100533.31;5050967;28;20206;-71
2023/08/13 01:52:56;;;;;;;0.70;0.70;;;;;;;21.00;100.00;100541.38;5032597;28;20226;-71
2023/08/13 01:55:24;;;;;;;0.82;0.82;;;;;;;21.00;100.00;100541.38;5051502;28;20203;-71
2023/08/13 01:57:51;;;;;;;2.20;1.00;;;;;;;20.91;100.00;100533.63;5016959;28;20211;-70
2023/08/13 02:00:18;;;;;;;0.70;0.70;;;;;;;20.84;100.00;100532.03;5051540;28;20200;-70
2023/08/13 02:02:45;;;;;;;1.48;1.00;;;;;;;20.80;100.00;100525.06;5050347;28;20211;-70
2023/08/13 02:05:11;;;;;;;1.33;0.88;;;;;;;20.61;100.00;100505.25;5051906;28;20726;-70
2023/08/13 02:07:38;;;;;;;0.60;0.60;;;;;;;20.64;100.00;100528.91;5051652;28;20219;-71
2023/08/13 02:10:05;;;;;;;1.00;1.00;;;;;;;20.60;100.00;100522.84;5051575;28;20203;-70
2023/08/13 02:12:34;;;;;;;0.80;0.80;;;;;;;20.48;100.00;100495.81;5051637;28;20227;-70
2023/08/13 02:15:00;;;;;;;0.70;0.70;;;;;;;20.66;100.00;100529.75;5016702;28;20199;-70
2023/08/13 02:17:27;;;;;;;1.23;1.02;;;;;;;20.67;100.00;100513.03;5051280;28;20207;-71
2023/08/13 02:19:54;;;;;;;0.60;0.60;;;;;;;20.78;100.00;100527.75;5032730;28;20210;-70
2023/08/13 02:22:21;;;;;;;0.88;0.80;;;;;;;20.89;100.00;100526.66;5050821;28;20207;-70
2023/08/13 02:24:47;;;;;;;1.10;0.80;;;;;;;20.91;100.00;100530.13;5032994;28;20199;-71
2023/08/13 02:27:14;;;;;;;0.65;0.65;;;;;;;20.96;100.00;100526.50;5032230;28;20192;-70
2023/08/13 02:29:43;;;;;;;0.77;0.70;;;;;;;21.06;100.00;100529.81;5051727;28;20199;-71
2023/08/13 02:32:10;;;;;;;0.60;0.60;;;;;;;20.86;100.00;100505.66;5051165;28;20223;-70
2023/08/13 02:34:44;;;;;;;1.17;0.80;;;;;;;21.12;100.00;100532.34;5051287;28;20209;-71
2023/08/13 02:37:11;;;;;;;1.23;1.13;;;;;;;21.11;100.00;100535.91;5051111;28;20203;-70
2023/08/13 02:39:38;;;;;;;2.05;0.95;;;;;;;21.07;100.00;100534.22;5051074;28;20326;-70
2023/08/13 02:42:05;;;;;;;0.65;0.65;;;;;;;21.06;100.00;100532.47;5051276;28;20196;-70
2023/08/13 02:44:32;;;;;;;0.80;0.80;;;;;;;21.00;100.00;100530.84;5051507;28;20199;-70
2023/08/13 02:47:00;;;;;;;0.70;0.70;;;;;;;21.07;100.00;100535.09;5051402;28;20222;-70
2023/08/13 02:49:26;;;;;;;0.70;0.70;;;;;;;20.92;100.00;100534.50;5051308;28;20196;-71
2023/08/13 02:51:53;;;;;;;0.60;0.60;;;;;;;20.95;100.00;100532.69;5051687;28;20223;-70
2023/08/13 02:54:20;;;;;;;1.10;0.80;;;;;;;20.99;100.00;100538.75;5055212;28;20199;-70
2023/08/13 02:56:47;;;;;;;0.85;0.82;;;;;;;20.99;100.00;100547.53;5055464;28;20290;-70
2023/08/13 02:59:13;;;;;;;0.60;0.60;;;;;;;20.77;100.00;100511.94;5036451;28;20196;-70
2023/08/13 03:01:41;;;;;;;1.55;0.90;;;;;;;20.90;100.00;100553.00;5020537;28;20199;-70
2023/08/13 03:04:09;;;;;;;1.27;0.75;;;;;;;20.97;100.00;100540.56;5054788;28;20627;-70
2023/08/13 03:06:36;;;;;;;0.77;0.77;;;;;;;20.93;100.00;100542.41;5055471;28;20206;-73
2023/08/13 03:09:03;;;;;;;0.68;0.68;;;;;;;20.92;100.00;100556.47;5055398;28;20631;-71
2023/08/13 03:11:29;;;;;;;0.90;0.90;;;;;;;20.84;100.00;100553.13;5055031;28;20322;-71
2023/08/13 03:13:56;;;;;;;0.77;0.77;;;;;;;20.85;100.00;100560.13;5054920;28;20195;-71
2023/08/13 03:16:23;;;;;;;0.63;0.63;;;;;;;20.97;100.00;100556.41;5054341;28;20597;-71
2023/08/13 03:18:51;;;;;;;1.02;0.88;;;;;;;20.83;100.00;100550.53;5055069;28;20204;-71
2023/08/13 03:21:19;;;;;;;0.77;0.77;;;;;;;20.81;100.00;100562.84;5054477;28;20660;-71
2023/08/13 03:23:47;;;;;;;1.17;0.93;;;;;;;20.67;100.00;100560.47;5054467;28;20613;-71
2023/08/13 03:26:13;;;;;;;0.75;0.75;;;;;;;20.69;100.00;100564.81;5054877;28;20227;-71
2023/08/13 03:28:40;;;;;;;2.05;0.93;;;;;;;20.73;100.00;100558.59;5054710;28;20191;-71
2023/08/13 03:31:07;;;;;;;1.25;0.80;;;;;;;20.66;100.00;100553.44;5053587;28;20192;-71
2023/08/13 03:33:34;;;;;;;0.82;0.82;;;;;;;20.78;100.00;100561.16;5055040;28;20210;-71
2023/08/13 03:36:00;;;;;;;1.45;1.17;;;;;;;20.63;100.00;100553.50;5054317;28;20238;-71
2023/08/13 03:38:28;;;;;;;0.93;0.85;;;;;;;20.68;100.00;100556.94;5054800;28;20222;-71
2023/08/13 03:40:56;;;;;;;0.80;0.80;;;;;;;20.63;100.00;100554.38;5035034;28;20295;-71
2023/08/13 03:43:23;;;;;;;4.45;1.38;;;;;;;20.65;100.00;100567.56;5054272;28;20203;-71
2023/08/13 03:45:49;;;;;;;0.80;0.80;;;;;;;20.64;100.00;100573.72;5054329;28;20196;-72
2023/08/13 03:48:16;;;;;;;0.75;0.75;;;;;;;20.64;100.00;100565.81;5016113;28;20274;-71
2023/08/13 03:50:43;;;;;;;0.80;0.80;;;;;;;20.76;100.00;100565.59;5044666;28;20207;-71
2023/08/13 03:53:11;;;;;;;0.80;0.80;;;;;;;20.99;100.00;100562.50;5053971;28;20227;-71
2023/08/13 03:55:39;;;;;;;0.90;0.82;;;;;;;20.98;100.00;100486.91;5054108;28;20191;-71
2023/08/13 03:58:07;;;;;;;0.70;0.70;;;;;;;21.84;100.00;100581.78;5054104;28;20295;-70
2023/08/13 04:00:34;;;;;;;1.50;0.90;;;;;;;22.33;100.00;100587.66;5018561;28;20227;-72
2023/08/13 04:03:03;;;;;;;0.82;0.82;;;;;;;22.28;100.00;100509.44;5052905;28;20674;-71
2023/08/13 04:05:30;;;;;;;1.63;0.85;;;;;;;22.89;100.00;100591.53;5054045;28;20568;-70
2023/08/13 04:07:56;;;;;;;2.53;2.00;;;;;;;22.96;100.00;100590.44;5054006;28;20210;-70
2023/08/13 04:10:23;;;;;;;1.92;0.88;;;;;;;23.17;100.00;100589.84;5052219;28;20286;-70
2023/08/13 04:12:51;;;;;;;0.90;0.70;;;;;;;23.62;100.00;100592.94;5053184;28;20227;-70
2023/08/13 04:15:18;;;;;;;2.08;1.35;;;;;;;23.91;100.00;100600.00;5052862;28;20199;-71
2023/08/13 04:17:45;;;;;;;1.50;0.90;;;;;;;24.31;100.00;100606.72;5052708;28;20188;-70
2023/08/13 04:20:12;;;;;;;0.80;0.80;;;;;;;24.49;100.00;100614.94;5051292;28;20203;-70
2023/08/13 04:22:39;;;;;;;1.52;0.82;;;;;;;24.59;100.00;100604.88;5053405;28;20207;-70
2023/08/13 04:25:08;;;;;;;0.80;0.80;;;;;;;24.93;98.46;100594.00;5052927;28;20203;-70
2023/08/13 04:27:35;;;;;;;0.70;0.70;;;;;;;25.49;96.90;100616.66;5053077;28;20246;-71
2023/08/13 04:30:03;;;;;;;1.27;0.80;;;;;;;25.91;92.50;100598.22;5052589;28;20195;-71
2023/08/13 04:32:31;;;;;;;0.90;0.70;;;;;;;26.46;88.69;100630.59;5052678;28;20226;-71
2023/08/13 04:34:58;;;;;;;0.70;0.70;;;;;;;27.19;83.46;100633.63;5051984;28;20685;-71
2023/08/13 04:37:25;;;;;;;1.08;0.75;;;;;;;27.45;79.28;100640.50;5053125;28;20674;-71
2023/08/13 04:39:52;;;;;;;0.65;0.65;;;;;;;27.83;75.82;100630.72;5052320;28;20586;-71
2023/08/13 04:42:19;;;;;;;0.80;0.80;;;;;;;28.22;72.43;100652.00;5052398;28;20657;-71
2023/08/13 04:44:46;;;;;;;1.27;1.17;;;;;;;28.22;69.92;100644.00;5052953;28;20195;-71
2023/08/13 04:47:14;;;;;;;0.85;0.60;;;;;;;28.75;67.96;100660.03;5053010;28;20214;-71
2023/08/13 04:49:41;;;;;;;0.47;0.47;;;;;;;28.80;65.17;100661.53;5052141;28;20207;-71
2023/08/13 04:52:08;;;;;;;0.50;0.50;;;;;;;29.07;64.44;100645.03;5052315;28;20222;-71
2023/08/13 04:54:34;;;;;;;0.60;0.60;;;;;;;29.14;65.00;100652.66;5051667;28;20210;-71
2023/08/13 04:57:01;;;;;;;0.70;0.70;;;;;;;29.61;62.08;100655.47;5048580;28;20202;-70
2023/08/13 04:59:28;;;;;;;1.38;0.85;;;;;;;29.75;60.18;100655.56;5053091;28;20242;-71
2023/08/13 05:01:54;;;;;;;0.70;0.70;;;;;;;30.04;58.90;100655.81;5053074;28;20271;-71
2023/08/13 05:04:23;;;;;;;0.70;0.70;;;;;;;30.23;58.86;100661.84;5053125;28;20210;-71
2023/08/13 05:06:49;;;;;;;1.80;0.65;;;;;;;30.10;57.73;100636.75;5052697;28;20218;-70
2023/08/13 05:09:16;;;;;;;3.00;0.80;;;;;;;30.33;56.46;100665.72;5053019;28;20207;-71
2023/08/13 05:11:43;;;;;;;7.03;1.25;;;;;;;29.90;57.81;100665.47;5051325;28;20203;-70
2023/08/13 05:14:10;;;;;;;1.40;0.95;;;;;;;30.06;58.69;100664.59;5052828;28;20206;-71
2023/08/13 05:16:36;;;;;;;4.43;1.00;;;;;;;30.43;57.26;100678.50;5051929;28;20632;-71
2023/08/13 05:19:04;;;;;;;2.03;1.15;;;;;;;30.76;56.66;100670.31;5052750;28;20206;-71
2023/08/13 05:21:32;;;;;;;0.68;0.68;;;;;;;30.44;56.33;100666.00;5052699;28;20198;-71
2023/08/13 05:23:59;;;;;;;5.28;1.15;;;;;;;29.79;58.81;100665.16;5052535;28;20585;-70
2023/08/13 05:26:26;;;;;;;0.65;0.65;;;;;;;29.80;59.90;100655.31;5017840;28;20199;-71
2023/08/13 05:28:53;;;;;;;1.23;0.77;;;;;;;30.15;59.80;100677.44;5032336;28;20202;-71
2023/08/13 05:31:20;;;;;;;4.68;1.05;;;;;;;29.71;60.33;100672.75;5052135;28;20579;-70
2023/08/13 05:33:47;;;;;;;4.55;1.35;;;;;;;29.54;62.87;100672.78;5052046;28;20226;-70
2023/08/13 05:36:14;;;;;;;0.95;0.60;;;;;;;29.33;64.58;100687.28;5050641;28;20247;-69
2023/08/13 05:38:42;;;;;;;0.70;0.70;;;;;;;29.23;64.28;100686.88;5051275;28;20202;-70
2023/08/13 05:41:09;;;;;;;4.70;1.05;;;;;;;29.34;63.95;100689.03;5049312;28;20677;-69
2023/08/13 05:43:35;;;;;;;1.33;0.63;;;;;;;29.04;63.99;100692.31;5051277;28;20203;-77
2023/08/13 05:46:02;;;;;;;1.17;0.65;;;;;;;28.94;64.88;100675.03;5049454;28;20202;-70
2023/08/13 05:48:29;;;;;;;2.45;0.88;;;;;;;28.71;67.08;100690.50;5040095;28;20195;-71
2023/08/13 05:50:56;;;;;;;2.92;1.10;;;;;;;28.42;70.85;100687.44;5051563;28;20674;-70
2023/08/13 05:53:23;;;;;;;3.40;0.80;;;;;;;28.18;70.32;100683.28;5051698;28;20297;-71
2023/08/13 05:55:52;;;;;;;0.60;0.60;;;;;;;27.98;71.03;100670.84;5016706;28;20203;-70
2023/08/13 05:58:19;;;;;;;3.03;0.88;;;;;;;27.42;75.79;100659.25;5048113;28;20206;-70
2023/08/13 06:00:46;;;;;;;2.55;1.35;;;;;;;27.03;81.13;100662.75;5051088;28;20584;-70
2023/08/13 06:03:14;;;;;;;5.03;1.23;;;;;;;27.09;81.95;100685.56;5046863;28;20204;-69
2023/08/13 06:05:41;;;;;;;3.60;1.00;;;;;;;26.96;83.54;100687.91;5059198;28;20638;-69
2023/08/13 06:08:08;;;;;;;4.22;1.25;;;;;;;26.68;84.40;100674.00;5052103;28;20202;-69
2023/08/13 06:10:35;;;;;;;3.65;1.05;;;;;;;26.68;86.20;100695.28;5064047;28;20282;-71
2023/08/13 06:13:03;;;;;;;1.10;0.77;;;;;;;26.47;86.66;100688.19;5064957;28;20237;-71
2023/08/13 06:15:29;;;;;;;0.70;0.70;;;;;;;26.40;87.33;100686.69;5068835;28;20213;-71
2023/08/13 06:17:56;;;;;;;4.95;1.10;;;;;;;26.38;85.81;100688.53;5050311;28;20208;-71
2023/08/13 06:20:23;;;;;;;0.70;0.70;;;;;;;26.21;87.05;100691.88;5048426;28;20639;-71
2023/08/13 06:22:50;;;;;;;0.75;0.73;;;;;;;25.92;87.87;100682.34;5051428;28;20540;-71
2023/08/13 06:25:17;;;;;;;1.42;0.90;;;;;;;25.91;84.23;100693.91;5058776;28;20620;-70
2023/08/13 06:27:44;;;;;;;1.00;0.80;;;;;;;25.83;81.47;100664.09;5059238;28;20207;-70
2023/08/13 06:30:12;;;;;;;5.13;1.10;;;;;;;25.77;78.90;100680.28;5041245;28;20203;-70
2023/08/13 06:32:39;;;;;;;2.10;0.90;;;;;;;25.48;82.75;100677.78;5058147;28;20227;-70
2023/08/13 06:35:06;;;;;;;2.65;0.98;;;;;;;25.15;83.04;100603.75;5054828;28;20242;-71
2023/08/13 06:37:34;;;;;;;3.00;1.23;;;;;;;25.69;83.24;100692.09;5033143;28;20207;-70
2023/08/13 06:40:01;;;;;;;2.05;0.85;;;;;;;25.80;85.13;100688.13;5051350;28;20199;-70
2023/08/13 06:42:28;;;;;;;2.38;0.80;;;;;;;25.91;87.09;100693.91;5051190;28;20206;-70
2023/08/13 06:44:55;;;;;;;3.85;1.00;;;;;;;25.91;84.73;100693.91;5032605;28;20200;-70
2023/08/13 06:47:23;;;;;;;0.63;0.63;;;;;;;25.96;83.04;100691.06;5051440;28;20203;-70
2023/08/13 06:49:49;;;;;;;1.58;0.90;;;;;;;25.74;81.03;100679.53;5051119;28;20207;-70
2023/08/13 06:52:16;;;;;;;2.97;0.95;;;;;;;25.80;79.27;100693.44;5051011;28;20192;-70
2023/08/13 06:54:43;;;;;;;1.45;1.10;;;;;;;25.79;82.21;100689.03;5051317;28;20206;-71
2023/08/13 06:57:10;;;;;;;3.28;0.95;;;;;;;25.81;79.20;100681.03;5051065;28;20196;-71
2023/08/13 06:59:37;;;;;;;1.17;0.82;;;;;;;25.93;77.16;100677.91;5032679;28;20226;-71
2023/08/13 07:02:04;;;;;;;3.60;0.80;;;;;;;25.78;74.95;100674.03;5051363;28;20199;-71
2023/08/13 07:04:33;;;;;;;1.95;0.90;;;;;;;25.83;75.00;100682.69;5051236;28;20200;-71
2023/08/13 07:06:59;;;;;;;1.65;0.82;;;;;;;25.96;75.70;100685.75;5051145;28;20195;-70
2023/08/13 07:09:27;;;;;;;2.60;0.90;;;;;;;25.99;73.34;100688.28;5051046;28;20207;-70
2023/08/13 07:11:54;;;;;;;2.63;0.98;;;;;;;26.00;70.54;100682.94;5050969;28;20203;-70
2023/08/13 07:14:21;;;;;;;1.27;0.80;;;;;;;26.20;71.72;100683.97;5032368;28;20278;-70
2023/08/13 07:16:48;;;;;;;2.63;0.85;;;;;;;26.29;72.37;100684.44;5051009;28;20199;-70
2023/08/13 07:19:15;;;;;;;2.33;0.80;;;;;;;26.46;74.43;100689.13;5051093;28;20634;-70
2023/08/13 07:21:43;;;;;;;4.57;1.08;;;;;;;26.54;73.75;100690.50;5051030;28;20583;-70
2023/08/13 07:24:09;;;;;;;2.35;0.90;;;;;;;26.81;70.43;100693.84;5044111;28;20207;-70
2023/08/13 07:26:36;;;;;;;1.98;1.02;;;;;;;26.75;69.55;100688.78;5070667;28;20202;-70
2023/08/13 07:29:06;;;;;;;1.23;0.85;;;;;;;26.78;65.41;100682.47;5070751;28;20337;-70
2023/08/13 07:31:34;;;;;;;4.93;1.23;;;;;;;26.80;64.30;100672.59;5056825;28;20199;-70
2023/08/13 07:34:01;;;;;;;4.32;1.17;;;;;;;26.65;62.54;100687.41;5050572;28;20224;-72
2023/08/13 07:36:28;;;;;;;3.40;0.95;;;;;;;26.60;63.37;100665.47;5069205;28;20703;-69
2023/08/13 07:38:56;;;;;;;2.03;0.88;;;;;;;26.90;63.05;100680.16;5060092;28;20199;-69
2023/08/13 07:41:23;;;;;;;0.73;0.73;;;;;;;26.89;62.91;100683.78;5071651;28;20198;-69
2023/08/13 07:43:50;;;;;;;2.13;0.90;;;;;;;26.79;59.40;100684.19;5074154;28;20696;-69
2023/08/13 07:46:16;;;;;;;1.98;0.85;;;;;;;26.86;59.23;100689.19;5058530;28;20207;-70
2023/08/13 07:48:43;;;;;;;0.70;0.70;;;;;;;26.84;62.07;100672.44;5026836;28;20203;-70
2023/08/13 07:51:10;;;;;;;4.82;1.15;;;;;;;26.94;62.00;100681.78;5074096;28;20206;-69
2023/08/13 07:53:37;;;;;;;1.02;0.75;;;;;;;26.96;59.19;100677.25;5045792;28;20222;-70
2023/08/13 07:56:05;;;;;;;5.47;1.15;;;;;;;27.18;59.71;100671.00;5055611;28;20212;-70
2023/08/13 07:58:32;;;;;;;7.30;1.33;;;;;;;27.31;59.61;100664.19;5073746;28;20203;-69
2023/08/13 08:01:00;;;;;;;2.70;1.20;;;;;;;27.35;60.96;100673.78;5063745;28;20207;-70
2023/08/13 08:03:27;;;;;;;1.25;0.80;;;;;;;27.31;59.88;100661.53;5070317;28;20230;-70
2023/08/13 08:05:53;;;;;;;3.78;1.13;;;;;;;27.51;59.99;100680.16;5073629;28;20700;-70
2023/08/13 08:08:20;;;;;;;3.38;1.10;;;;;;;27.43;60.32;100677.81;5072898;28;20199;-70
2023/08/13 08:10:47;;;;;;;1.40;0.80;;;;;;;27.52;60.63;100665.91;5054000;28;20241;-70
2023/08/13 08:13:15;;;;;;;3.00;1.08;;;;;;;27.69;60.94;100668.69;5053767;28;20227;-70
2023/08/13 08:15:42;;;;;;;2.83;1.05;;;;;;;27.58;59.57;100654.97;5018393;28;20209;-70
2023/08/13 08:18:09;;;;;;;1.77;0.90;;;;;;;27.32;58.65;100657.94;5065115;28;20207;-70
2023/08/13 08:20:35;;;;;;;1.75;0.70;;;;;;;27.36;60.09;100646.22;5073118;28;20203;-71
2023/08/13 08:23:02;;;;;;;2.40;0.88;;;;;;;27.42;58.50;100649.47;5038331;28;20593;-70
2023/08/13 08:25:29;;;;;;;2.33;0.77;;;;;;;27.64;56.93;100659.19;5059246;28;20593;-70
2023/08/13 08:27:56;;;;;;;3.40;1.20;;;;;;;27.73;56.90;100664.06;5073296;28;20599;-70
2023/08/13 08:30:24;;;;;;;1.98;0.68;;;;;;;27.45;54.47;100648.50;5059101;28;20677;-70
2023/08/13 08:32:51;;;;;;;0.80;0.80;;;;;;;27.58;53.06;100647.84;5067660;28;20200;-70
2023/08/13 08:35:18;;;;;;;1.50;0.80;;;;;;;27.67;49.69;100654.56;5053171;28;20255;-69
2023/08/13 08:37:45;;;;;;;1.67;0.90;;;;;;;27.84;51.11;100645.78;5067315;28;20215;-70
2023/08/13 08:40:12;;;;;;;1.83;0.90;;;;;;;28.06;48.64;100652.69;5034806;28;20215;-70
2023/08/13 08:42:41;;;;;;;1.35;0.65;;;;;;;28.04;48.89;100637.69;5034532;28;20592;-70
2023/08/13 08:45:10;;;;;;;2.58;0.90;;;;;;;28.29;48.68;100653.44;5053034;28;20200;-71
2023/08/13 08:47:40;;;;;;;5.57;1.13;;;;;;;28.26;48.93;100637.53;5018008;28;20652;-71
2023/08/13 08:50:10;;;;;;;0.68;0.63;;;;;;;28.26;47.63;100662.41;5060311;28;20203;-71
2023/08/13 08:52:39;;;;;;;2.40;1.20;;;;;;;28.23;47.35;100659.03;5072524;28;20202;-71
2023/08/13 08:55:07;;;;;;;5.68;1.15;;;;;;;28.17;47.88;100648.69;5052639;28;20619;-71
2023/08/13 08:57:34;;;;;;;1.20;0.73;;;;;;;28.38;47.87;100645.81;5052840;28;20203;-71
2023/08/13 09:00:01;;;;;;;4.57;1.50;;;;;;;28.44;47.35;100655.31;5052684;28;20586;-71
2023/08/13 09:02:27;;;;;;;6.13;1.30;;;;;;;28.59;47.85;100651.91;5052598;28;20210;-71
2023/08/13 09:04:56;;;;;;;1.45;0.85;;;;;;;28.83;48.20;100650.69;5052779;28;20215;-71
2023/08/13 09:07:29;;;;;;;3.67;1.30;;;;;;;28.90;47.90;100636.06;5052741;28;20210;-70
2023/08/13 09:09:56;;;;;;;1.85;0.80;;;;;;;28.52;47.30;100575.75;5052657;28;20226;-71
2023/08/13 09:12:23;;;;;;;6.40;1.45;;;;;;;28.99;46.83;100648.97;5061252;28;20205;-71
2023/08/13 09:14:54;;;;;;;0.60;0.60;;;;;;;28.74;46.84;100624.47;5038467;28;20227;-71
2023/08/13 09:17:23;;;;;;;1.98;0.80;;;;;;;28.87;46.84;100641.56;5060098;28;20199;-69
2023/08/13 09:19:50;;;;;;;3.65;1.13;;;;;;;28.85;46.84;100631.94;5072094;28;20264;-70
2023/08/13 09:22:18;;;;;;;7.60;1.58;;;;;;;29.03;47.71;100639.84;5066077;28;20207;-69
2023/08/13 09:24:46;;;;;;;1.00;0.90;;;;;;;29.00;46.59;100637.31;5052042;28;20682;-69
2023/08/13 09:27:13;;;;;;;3.38;1.08;;;;;;;28.84;45.86;100601.69;5052042;28;20211;-70
2023/08/13 09:29:40;;;;;;;0.68;0.68;;;;;;;28.94;46.53;100602.06;5063493;28;20203;-68
2023/08/13 09:32:11;;;;;;;2.75;0.82;;;;;;;28.92;45.50;100596.81;5068247;28;20207;-70
2023/08/13 09:34:37;;;;;;;0.85;0.70;;;;;;;29.00;44.41;100626.63;5037993;28;20227;-69
2023/08/13 09:37:04;;;;;;;2.30;0.85;;;;;;;29.04;45.03;100622.84;5052163;28;20720;-69
2023/08/13 09:39:32;;;;;;;4.25;1.48;;;;;;;29.09;43.73;100614.63;5066074;28;20195;-70
2023/08/13 09:42:00;;;;;;;1.02;0.80;;;;;;;29.02;43.25;100608.75;5051820;28;20645;-70
2023/08/13 09:44:29;;;;;;;6.03;1.23;;;;;;;29.19;43.75;100614.97;5068991;28;20199;-69
2023/08/13 09:47:01;;;;;;;3.05;1.55;;;;;;;29.38;43.39;100624.66;5071915;28;20244;-69
2023/08/13 09:49:30;;;;;;;2.10;0.77;;;;;;;29.49;42.55;100616.06;5057604;28;20235;-69
2023/08/13 09:51:59;;;;;;;2.38;1.33;;;;;;;29.50;41.85;100605.25;5063034;28;20326;-70
2023/08/13 09:54:33;;;;;;;4.45;1.13;;;;;;;29.59;41.98;100619.94;5065615;28;20229;-69
2023/08/13 09:57:03;;;;;;;2.13;0.80;;;;;;;29.77;42.19;100618.94;5060170;28;20252;-70
2023/08/13 09:59:33;;;;;;;1.38;0.65;;;;;;;29.83;40.53;100607.00;5069546;28;20677;-69
2023/08/13 10:02:06;;;;;;;1.27;0.85;;;;;;;29.64;40.75;100601.84;5063718;28;20249;-70
2023/08/13 10:04:34;;;;;;;2.15;0.85;;;;;;;29.48;41.48;100595.59;5051640;28;20207;-69
2023/08/13 10:07:02;;;;;;;1.50;0.80;;;;;;;29.67;41.56;100606.16;5033485;28;20213;-70
2023/08/13 10:09:30;;;;;;;3.15;1.10;;;;;;;29.80;40.64;100601.84;5052065;28;20650;-71
2023/08/13 10:11:57;;;;;;;0.95;0.85;;;;;;;29.89;41.71;100612.94;5051640;28;20696;-71
2023/08/13 10:14:26;;;;;;;0.88;0.70;;;;;;;29.90;39.74;100603.94;5051504;28;20242;-71
2023/08/13 10:16:53;;;;;;;0.80;0.80;;;;;;;29.96;40.11;100602.75;5051621;28;20227;-70
2023/08/13 10:19:20;;;;;;;6.57;1.50;;;;;;;29.88;40.42;100596.97;5051383;28;20199;-70
2023/08/13 10:21:55;;;;;;;1.42;0.80;;;;;;;29.82;40.25;100606.16;5049403;28;20749;-70
2023/08/13 10:24:23;;;;;;;1.30;0.95;;;;;;;29.93;41.04;100598.41;5051353;28;20290;-70
2023/08/13 10:26:50;;;;;;;2.92;1.00;;;;;;;29.81;40.97;100599.09;5051298;28;20282;-71
2023/08/13 10:29:17;;;;;;;1.90;0.80;;;;;;;29.99;41.84;100579.38;5051408;28;20202;-71
2023/08/13 10:31:54;;;;;;;0.70;0.70;;;;;;;30.10;40.96;100588.59;5051297;28;20204;-70
2023/08/13 10:34:39;;;;;;;0.50;0.50;;;;;;;30.12;40.40;100565.25;5051479;28;20222;-70
2023/08/13 10:37:14;;;;;;;3.38;1.25;;;;;;;30.13;40.28;100577.69;5051537;28;20222;-70
2023/08/13 10:39:42;;;;;;;0.85;0.77;;;;;;;29.95;40.74;100580.50;5050305;28;20861;-69
2023/08/13 10:42:47;;;;;;;4.43;1.15;;;;;;;30.21;41.25;100580.81;5050325;28;20197;-72
2023/08/13 10:45:17;;;;;;;1.77;0.90;;;;;;;30.02;40.33;100555.09;5050912;28;20556;-71
2023/08/13 10:47:50;;;;;;;2.83;0.82;;;;;;;29.87;39.63;100544.41;5051615;28;20245;-71
2023/08/13 10:50:28;;;;;;;5.93;1.23;;;;;;;30.22;39.07;100579.81;5048414;28;20206;-73
2023/08/13 10:53:00;;;;;;;1.55;1.00;;;;;;;30.24;38.56;100546.69;5048813;28;20280;-71
2023/08/13 10:55:29;;;;;;;3.63;0.95;;;;;;;30.58;38.78;100561.63;5049898;28;20227;-72
2023/08/13 10:57:56;;;;;;;0.60;0.60;;;;;;;30.21;36.26;100546.03;5046683;28;20194;-73
2023/08/13 11:00:25;;;;;;;5.22;1.65;;;;;;;30.26;37.58;100568.00;5049310;28;20541;-70
2023/08/13 11:02:54;;;;;;;1.10;0.75;;;;;;;30.20;37.16;100537.13;5050392;28;20257;-71
2023/08/13 11:05:22;;;;;;;2.58;0.90;;;;;;;30.31;37.08;100565.94;5050791;28;20203;-71
2023/08/13 11:07:49;;;;;;;1.00;0.90;;;;;;;30.62;38.60;100554.28;5049236;28;20626;-70
2023/08/13 11:10:18;;;;;;;6.40;1.35;;;;;;;30.36;37.22;100545.97;5048582;28;20210;-71
2023/08/13 11:12:46;;;;;;;1.65;0.70;;;;;;;30.63;37.68;100554.19;5048870;28;20235;-73
2023/08/13 11:15:12;;;;;;;1.15;0.63;;;;;;;30.64;38.41;100555.06;5052151;28;20965;-72
2023/08/13 11:17:41;;;;;;;0.70;0.70;;;;;;;30.60;36.99;100557.06;5051600;28;20336;-71
2023/08/13 11:20:10;;;;;;;0.73;0.68;;;;;;;30.40;37.78;100550.19;5045293;28;20227;-71
2023/08/13 11:22:37;;;;;;;2.60;0.80;;;;;;;29.89;37.62;100489.91;5038601;28;20200;-72
2023/08/13 11:25:05;;;;;;;1.70;0.75;;;;;;;30.33;38.21;100542.59;5034588;28;20215;-72